Time;durP1;ratioP1;P1;durP2;ratioP2;P2;SDS_P1;SDS_P2;PMS_P1;PMS_P2;Temp;Humidity;BMP_temperature;BMP_pressure;BME280_temperature;BME280_humidity;BME280_pressure;Samples;Min_cycle;Max_cycle;Signal;HPM_P1;HPM_P2
2021/06/16 00:00:17;;;;;;;5.13;3.57;;;;;;;25.47;58.96;99509.41;2060802;28;20061;-43
2021/06/16 00:01:17;;;;;;;3.88;3.50;;;;;;;25.47;58.70;99504.72;2060696;28;20156;-42
2021/06/16 00:02:18;;;;;;;4.07;3.40;;;;;;;25.47;58.77;99510.25;2061607;28;20033;-47
2021/06/16 00:03:19;;;;;;;4.35;3.47;;;;;;;25.47;58.73;99514.91;2062046;28;20060;-43
2021/06/16 00:04:19;;;;;;;3.47;3.17;;;;;;;25.46;59.01;99514.06;2057513;28;20131;-44
2021/06/16 00:05:24;;;;;;;3.57;3.27;;;;;;;25.47;59.07;99517.66;2064899;28;20022;-42
2021/06/16 00:06:24;;;;;;;3.75;3.45;;;;;;;25.47;58.71;99518.50;2058818;28;20400;-43
2021/06/16 00:07:25;;;;;;;3.20;2.93;;;;;;;25.47;58.83;99521.28;2061741;28;20033;-43
2021/06/16 00:08:25;;;;;;;3.40;3.10;;;;;;;25.47;58.88;99512.16;2062097;28;20030;-43
2021/06/16 00:09:26;;;;;;;4.00;3.60;;;;;;;25.47;58.88;99510.25;2059268;28;20030;-43
2021/06/16 00:10:29;;;;;;;4.03;3.27;;;;;;;25.47;58.87;99509.41;2062926;28;20471;-43
2021/06/16 00:11:30;;;;;;;4.68;3.38;;;;;;;25.48;58.71;99506.44;2057813;28;20018;-42
2021/06/16 00:12:31;;;;;;;4.10;3.70;;;;;;;25.47;58.77;99504.72;2060337;28;20067;-45
2021/06/16 00:13:32;;;;;;;3.80;3.03;;;;;;;25.47;58.92;99503.88;2061145;28;20172;-43
2021/06/16 00:14:32;;;;;;;4.33;3.57;;;;;;;25.47;58.85;99503.88;2061319;28;20033;-43
2021/06/16 00:15:36;;;;;;;3.10;2.80;;;;;;;25.47;58.87;99507.47;2062059;28;20234;-45
2021/06/16 00:16:37;;;;;;;4.20;3.47;;;;;;;25.47;58.81;99510.25;2061178;28;20025;-43
2021/06/16 00:17:38;;;;;;;5.33;3.60;;;;;;;25.46;58.96;99511.31;2061187;28;20022;-43
2021/06/16 00:18:39;;;;;;;5.68;3.50;;;;;;;25.46;58.94;99503.03;2058318;28;20185;-42
2021/06/16 00:19:39;;;;;;;3.73;3.33;;;;;;;25.46;58.85;99511.31;2059708;28;20033;-43
2021/06/16 00:20:40;;;;;;;5.87;4.27;;;;;;;25.47;58.50;99510.25;2057151;28;20451;-43
2021/06/16 00:21:41;;;;;;;3.50;3.20;;;;;;;25.47;58.66;99501.13;2055823;28;20018;-43
2021/06/16 00:22:42;;;;;;;3.88;3.55;;;;;;;25.46;58.62;99508.53;2058799;28;20022;-42
2021/06/16 00:23:43;;;;;;;3.35;3.05;;;;;;;25.47;58.80;99504.72;2061843;28;20487;-43
2021/06/16 00:24:43;;;;;;;3.47;3.17;;;;;;;25.46;58.71;99503.03;2060934;28;20381;-43
2021/06/16 00:25:44;;;;;;;3.80;3.20;;;;;;;25.46;58.63;99508.53;2060132;28;20708;-41
2021/06/16 00:26:45;;;;;;;3.60;3.30;;;;;;;25.45;58.72;99504.06;2060577;28;20020;-42
2021/06/16 00:27:45;;;;;;;4.23;3.47;;;;;;;25.45;58.85;99502.19;2061163;28;20435;-41
2021/06/16 00:28:45;;;;;;;4.70;3.27;;;;;;;25.46;58.67;99503.03;2061132;28;20030;-41
2021/06/16 00:29:46;;;;;;;3.17;2.87;;;;;;;25.46;58.72;99503.03;2060440;28;20355;-41
2021/06/16 00:30:47;;;;;;;3.83;3.00;;;;;;;25.47;58.78;99504.72;2058345;28;20343;-41
2021/06/16 00:31:48;;;;;;;3.40;3.10;;;;;;;25.46;58.70;99503.03;2060378;28;20444;-41
2021/06/16 00:32:48;;;;;;;3.57;3.23;;;;;;;25.47;58.62;99504.72;2062014;28;20029;-42
2021/06/16 00:33:49;;;;;;;4.23;3.63;;;;;;;25.46;58.95;99503.03;2058990;28;20073;-40
2021/06/16 00:34:50;;;;;;;3.40;3.10;;;;;;;25.47;58.75;99501.13;2062105;28;20479;-40
2021/06/16 00:35:50;;;;;;;3.97;3.20;;;;;;;25.46;58.69;99500.28;2062357;28;20022;-41
2021/06/16 00:36:51;;;;;;;4.17;3.33;;;;;;;25.45;58.56;99506.81;2052356;28;20030;-41
2021/06/16 00:37:53;;;;;;;3.60;3.27;;;;;;;25.46;58.72;99514.06;2051068;28;20022;-41
2021/06/16 00:38:54;;;;;;;4.25;3.20;;;;;;;25.47;58.72;99510.25;2063316;28;20029;-41
2021/06/16 00:39:55;;;;;;;3.73;3.20;;;;;;;25.45;58.86;99502.19;2063216;28;20893;-41
2021/06/16 00:40:57;;;;;;;3.67;3.30;;;;;;;25.44;58.71;99505.97;2059983;28;20041;-41
2021/06/16 00:41:57;;;;;;;3.60;3.30;;;;;;;25.45;58.86;99504.06;2061402;28;20674;-41
2021/06/16 00:43:00;;;;;;;4.20;3.00;;;;;;;25.44;58.76;99494.94;2059566;28;20073;-42
2021/06/16 00:44:01;;;;;;;3.58;3.28;;;;;;;25.44;58.77;99491.34;2060295;28;20089;-42
2021/06/16 00:45:04;;;;;;;4.60;3.50;;;;;;;25.45;58.50;99491.16;2059929;28;20077;-44
2021/06/16 00:46:04;;;;;;;3.38;3.05;;;;;;;25.44;58.77;99494.09;2059095;28;20391;-43
2021/06/16 00:47:05;;;;;;;3.30;3.00;;;;;;;25.44;58.42;99488.59;2061392;28;20507;-43
2021/06/16 00:48:06;;;;;;;3.53;3.23;;;;;;;25.43;58.51;99484.13;2057132;28;20053;-43
2021/06/16 00:49:06;;;;;;;3.92;3.20;;;;;;;25.43;58.75;99487.75;2060854;28;20367;-43
2021/06/16 00:50:10;;;;;;;3.27;2.93;;;;;;;25.44;58.56;99483.06;2060525;28;20737;-44
2021/06/16 00:51:11;;;;;;;3.40;3.10;;;;;;;25.44;58.71;99488.59;2059500;28;20427;-43
2021/06/16 00:52:11;;;;;;;3.97;3.10;;;;;;;25.42;58.75;99486.03;2055919;28;20626;-43
2021/06/16 00:53:12;;;;;;;3.60;3.30;;;;;;;25.44;58.73;99483.06;2060409;28;20326;-43
2021/06/16 00:54:12;;;;;;;3.77;3.30;;;;;;;25.43;58.58;99479.47;2062228;28;20021;-43
2021/06/16 00:55:13;;;;;;;3.47;3.10;;;;;;;25.43;58.71;99478.63;2059335;28;20861;-42
2021/06/16 00:56:13;;;;;;;3.77;3.30;;;;;;;25.44;58.67;99477.56;2060160;28;20348;-43
2021/06/16 00:57:15;;;;;;;3.43;3.13;;;;;;;25.43;58.63;99478.63;2057825;28;20143;-44
2021/06/16 00:58:16;;;;;;;3.67;3.38;;;;;;;25.43;58.33;99475.84;2058788;28;20335;-43
2021/06/16 00:59:16;;;;;;;4.53;3.13;;;;;;;25.46;58.44;99486.47;2062172;28;20032;-43
2021/06/16 01:00:20;;;;;;;4.10;3.30;;;;;;;25.45;58.42;99485.63;2057607;28;20041;-44
2021/06/16 01:01:27;;;;;;;3.67;3.15;;;;;;;25.42;58.66;99490.69;2060396;28;20494;-45
2021/06/16 01:02:33;;;;;;;4.43;3.80;;;;;;;25.43;58.42;99486.91;2058232;28;20079;-43
2021/06/16 01:03:57;;;;;;;3.33;3.03;;;;;;;25.41;58.31;99489.84;2055162;28;20025;-43
2021/06/16 01:05:00;;;;;;;3.42;3.05;;;;;;;25.42;58.33;99487.94;2061298;28;20045;-43
2021/06/16 01:06:20;;;;;;;3.17;2.88;;;;;;;25.39;58.46;99486.44;2058885;28;20029;-43
2021/06/16 01:07:25;;;;;;;3.67;3.20;;;;;;;25.41;58.59;99497.28;2060230;28;20141;-43
2021/06/16 01:08:29;;;;;;;3.58;3.28;;;;;;;25.40;58.63;99490.88;2061484;28;20535;-44
2021/06/16 01:09:37;;;;;;;3.70;3.25;;;;;;;25.40;58.69;99495.56;2056953;28;20061;-43
2021/06/16 01:10:44;;;;;;;3.50;3.20;;;;;;;25.41;58.45;99494.53;2060761;28;20030;-43
2021/06/16 01:11:56;;;;;;;3.83;3.47;;;;;;;25.40;58.64;99492.81;2060322;28;20148;-43
2021/06/16 01:13:07;;;;;;;3.97;3.00;;;;;;;25.39;58.76;99486.44;2063381;28;20037;-42
2021/06/16 01:14:19;;;;;;;3.35;3.05;;;;;;;25.39;58.64;99485.59;2061138;28;20099;-42
2021/06/16 01:15:21;;;;;;;;;;;;;;;25.37;58.67;99484.94;2059804;28;20041;-45
2021/06/16 01:16:53;;;;;;;3.92;3.38;;;;;;;25.38;58.53;99483.88;2060901;28;19924;-44
2021/06/16 01:17:59;;;;;;;3.40;3.08;;;;;;;25.37;58.92;99480.28;2046982;28;20056;-43
2021/06/16 01:19:41;;;;;;;3.95;3.10;;;;;;;25.36;58.71;99474.97;2057570;28;20028;-43
2021/06/16 01:20:43;;;;;;;3.63;3.15;;;;;;;25.37;58.69;99482.19;2057233;28;20027;-43
2021/06/16 01:21:49;;;;;;;4.15;3.00;;;;;;;25.37;58.67;99482.19;2057814;28;20021;-43
2021/06/16 01:22:58;;;;;;;3.20;2.78;;;;;;;25.37;58.73;99482.19;2062138;28;20507;-43
2021/06/16 01:24:09;;;;;;;4.20;2.92;;;;;;;25.36;58.30;99474.97;2060442;28;20057;-42
2021/06/16 01:25:33;;;;;;;4.07;3.38;;;;;;;25.36;58.70;99475.81;2058787;28;20017;-43
2021/06/16 01:26:44;;;;;;;4.35;3.22;;;;;;;25.36;58.75;99463.94;2060427;28;20061;-42
2021/06/16 01:27:45;;;;;;;2.95;2.50;;;;;;;25.36;58.75;99470.31;2060214;28;20097;-43
2021/06/16 01:28:46;;;;;;;3.88;3.30;;;;;;;25.37;58.56;99472.00;2059172;28;20906;-42
2021/06/16 01:29:47;;;;;;;4.22;3.17;;;;;;;25.38;58.47;99467.31;2060302;28;20502;-44
2021/06/16 01:30:50;;;;;;;3.28;2.95;;;;;;;25.38;58.51;99472.84;2061066;28;20022;-42
2021/06/16 01:31:51;;;;;;;3.20;2.90;;;;;;;25.38;58.72;99467.31;2059211;28;20026;-42
2021/06/16 01:32:53;;;;;;;3.47;3.17;;;;;;;25.37;58.48;99465.63;2060644;28;20077;-44
2021/06/16 01:33:54;;;;;;;4.13;3.40;;;;;;;25.38;58.61;99470.09;2060462;28;20033;-44
2021/06/16 01:34:55;;;;;;;3.10;2.80;;;;;;;25.39;58.76;99469.03;2061652;28;20049;-43
2021/06/16 01:35:57;;;;;;;4.53;3.60;;;;;;;25.40;58.24;99473.50;2058656;28;20025;-43
2021/06/16 01:36:59;;;;;;;;;;;;;;;25.35;58.59;99468.59;2051964;28;20551;-43
2021/06/16 01:38:00;;;;;;;2.92;2.60;;;;;;;25.37;58.51;99473.91;2049329;28;19921;-42
2021/06/16 01:39:01;;;;;;;;;;;;;;;25.34;58.63;99468.81;2057356;28;20022;-42
2021/06/16 01:40:02;;;;;;;3.95;3.20;;;;;;;25.35;58.82;99468.59;2063021;28;20322;-43
2021/06/16 01:41:05;;;;;;;3.55;3.15;;;;;;;25.35;58.45;99464.97;2058175;28;20469;-44
2021/06/16 01:42:18;;;;;;;3.97;3.17;;;;;;;25.36;58.49;99474.97;2060899;28;20987;-44
2021/06/16 01:43:20;;;;;;;3.42;3.13;;;;;;;25.36;58.80;99462.03;2052086;28;20208;-43
2021/06/16 01:44:23;;;;;;;3.47;3.17;;;;;;;25.37;58.69;99462.88;2051575;28;20119;-43
2021/06/16 01:45:24;;;;;;;3.42;2.97;;;;;;;25.38;58.45;99472.84;2054258;28;20054;-44
2021/06/16 01:46:26;;;;;;;3.45;3.15;;;;;;;25.37;58.51;99465.63;2058642;28;20028;-43
2021/06/16 01:47:28;;;;;;;3.15;2.85;;;;;;;25.38;58.35;99459.03;2061303;28;20083;-43
2021/06/16 01:48:31;;;;;;;3.58;2.90;;;;;;;25.37;58.72;99471.16;2060171;28;20080;-42
2021/06/16 01:49:32;;;;;;;3.65;3.22;;;;;;;25.38;58.43;99456.28;2061269;28;20465;-44
2021/06/16 01:50:34;;;;;;;3.80;3.22;;;;;;;25.38;58.64;99450.78;2059765;28;20135;-44
2021/06/16 01:51:35;;;;;;;3.30;3.00;;;;;;;25.39;58.48;99455.25;2060002;28;20318;-44
2021/06/16 01:52:36;;;;;;;3.60;3.30;;;;;;;25.39;58.57;99455.25;2060868;28;20486;-44
2021/06/16 01:53:39;;;;;;;3.85;3.08;;;;;;;25.39;58.64;99458.00;2059849;28;20442;-42
2021/06/16 01:54:40;;;;;;;3.72;2.78;;;;;;;25.38;58.49;99456.28;2060392;28;20037;-43
2021/06/16 01:55:41;;;;;;;3.40;2.85;;;;;;;25.39;58.49;99452.50;2059819;28;20120;-43
2021/06/16 01:56:43;;;;;;;3.60;3.30;;;;;;;25.40;58.45;99451.41;2058230;28;20076;-44
2021/06/16 01:57:46;;;;;;;3.20;2.90;;;;;;;25.39;58.78;99446.97;2060493;28;20026;-43
2021/06/16 01:58:47;;;;;;;3.22;2.92;;;;;;;25.38;58.46;99450.78;2060221;28;20332;-43
2021/06/16 01:59:51;;;;;;;3.30;3.00;;;;;;;25.38;58.54;99446.13;2060597;28;20021;-42
2021/06/16 02:00:53;;;;;;;3.08;2.88;;;;;;;25.38;58.45;99446.13;2061573;28;20034;-42
2021/06/16 02:01:54;;;;;;;4.03;2.88;;;;;;;25.39;58.71;99446.97;2062452;28;20245;-43
2021/06/16 02:02:57;;;;;;;4.45;3.22;;;;;;;25.38;58.51;99440.63;2051908;28;20026;-43
2021/06/16 02:03:57;;;;;;;3.70;3.40;;;;;;;25.37;58.55;99436.13;2054148;28;20115;-43
2021/06/16 02:04:59;;;;;;;3.87;3.20;;;;;;;25.38;58.57;99436.97;2059459;28;20739;-45
2021/06/16 02:06:00;;;;;;;3.83;3.00;;;;;;;25.37;58.58;99433.38;2057935;28;20320;-43
2021/06/16 02:07:14;;;;;;;3.40;3.10;;;;;;;25.38;58.57;99448.00;2061085;28;20044;-44
2021/06/16 02:08:24;;;;;;;3.38;2.90;;;;;;;25.36;58.70;99437.19;2060188;28;20018;-43
2021/06/16 02:09:26;;;;;;;3.47;3.15;;;;;;;25.38;58.72;99442.50;2059217;28;20034;-44
2021/06/16 02:10:36;;;;;;;3.25;2.95;;;;;;;25.38;58.42;99425.94;2060854;28;20321;-42
2021/06/16 02:11:39;;;;;;;3.50;3.20;;;;;;;25.37;58.69;99438.03;2054002;28;20408;-43
2021/06/16 02:12:43;;;;;;;3.15;2.90;;;;;;;25.37;58.67;99427.00;2054830;28;20053;-44
2021/06/16 02:13:51;;;;;;;3.22;2.90;;;;;;;25.37;58.33;99432.53;2059662;28;20717;-43
2021/06/16 02:14:56;;;;;;;3.40;3.10;;;;;;;25.36;58.39;99420.66;2061289;28;20124;-44
2021/06/16 02:16:13;;;;;;;3.30;3.00;;;;;;;25.36;58.54;99419.81;2059484;28;20033;-43
2021/06/16 02:17:16;;;;;;;3.20;2.90;;;;;;;25.36;58.66;99414.28;2055552;28;20022;-42
2021/06/16 02:18:21;;;;;;;2.95;2.67;;;;;;;25.37;58.61;99418.75;2060725;28;20034;-44
2021/06/16 02:19:26;;;;;;;3.13;2.83;;;;;;;25.35;58.42;99418.09;2058402;28;20022;-42
2021/06/16 02:20:27;;;;;;;3.42;3.10;;;;;;;25.37;58.81;99415.97;2062052;28;20410;-42
2021/06/16 02:21:28;;;;;;;3.65;3.28;;;;;;;25.37;58.47;99415.97;2057576;28;20049;-41
2021/06/16 02:22:29;;;;;;;3.35;3.05;;;;;;;25.37;58.61;99415.97;2059376;28;20043;-41
2021/06/16 02:23:30;;;;;;;3.65;2.90;;;;;;;25.37;58.73;99415.97;2060406;28;20021;-42
2021/06/16 02:24:31;;;;;;;3.23;2.93;;;;;;;25.36;58.64;99415.13;2058872;28;20481;-41
2021/06/16 02:25:32;;;;;;;3.75;2.92;;;;;;;25.37;58.71;99418.75;2061846;28;20519;-41
2021/06/16 02:26:34;;;;;;;3.28;2.97;;;;;;;25.37;58.85;99416.81;2060582;28;20025;-40
2021/06/16 02:27:34;;;;;;;3.95;3.08;;;;;;;25.37;58.63;99415.97;2058950;28;20579;-43
2021/06/16 02:28:35;;;;;;;3.33;2.70;;;;;;;25.38;58.33;99417.66;2060668;28;20029;-43
2021/06/16 02:29:35;;;;;;;4.47;3.07;;;;;;;25.36;58.37;99412.38;2056697;28;20481;-43
2021/06/16 02:30:36;;;;;;;3.00;2.80;;;;;;;25.37;58.67;99410.47;2062841;28;20450;-43
2021/06/16 02:31:38;;;;;;;2.93;2.63;;;;;;;25.37;58.42;99404.94;2058596;28;20113;-43
2021/06/16 02:32:39;;;;;;;3.05;2.75;;;;;;;25.38;58.36;99406.63;2060971;28;20286;-43
2021/06/16 02:33:40;;;;;;;3.40;3.00;;;;;;;25.36;58.32;99395.81;2061633;28;20038;-43
2021/06/16 02:34:40;;;;;;;2.90;2.60;;;;;;;25.37;58.33;99399.44;2059148;28;20827;-43
2021/06/16 02:35:41;;;;;;;3.70;3.30;;;;;;;25.36;58.40;99400.50;2062557;28;20269;-42
2021/06/16 02:36:47;;;;;;;3.73;3.40;;;;;;;25.36;58.59;99394.97;2058035;28;20375;-44
2021/06/16 02:38:01;;;;;;;3.50;3.20;;;;;;;25.35;58.54;99401.53;2052168;28;20034;-43
2021/06/16 02:39:07;;;;;;;3.15;2.85;;;;;;;25.34;58.30;99388.81;2052958;28;20368;-44
2021/06/16 02:40:12;;;;;;;3.80;3.00;;;;;;;25.35;58.45;99396.88;2056992;28;20451;-43
2021/06/16 02:41:14;;;;;;;3.20;2.90;;;;;;;25.35;58.46;99396.03;2060020;28;20502;-43
2021/06/16 02:42:16;;;;;;;2.80;2.60;;;;;;;25.34;58.14;99395.19;2060898;28;20068;-43
2021/06/16 02:43:20;;;;;;;4.20;3.55;;;;;;;25.35;58.48;99396.03;2058230;28;20034;-42
2021/06/16 02:44:23;;;;;;;3.15;2.88;;;;;;;25.35;58.30;99393.25;2045913;28;20041;-43
2021/06/16 02:45:26;;;;;;;3.50;3.08;;;;;;;25.36;58.29;99392.22;2053631;28;20036;-43
2021/06/16 02:46:29;;;;;;;2.97;2.67;;;;;;;25.35;58.27;99396.03;2060365;28;20644;-44
2021/06/16 02:47:32;;;;;;;3.38;3.08;;;;;;;25.35;58.27;99391.34;2060206;28;20034;-43
2021/06/16 02:48:33;;;;;;;3.38;3.05;;;;;;;25.34;58.46;99395.19;2059050;28;20076;-42
2021/06/16 02:49:40;;;;;;;3.47;2.88;;;;;;;25.35;58.45;99393.25;2059916;28;20022;-43
2021/06/16 02:50:44;;;;;;;3.00;2.70;;;;;;;25.35;58.48;99390.50;2061586;28;20104;-43
2021/06/16 02:51:45;;;;;;;2.60;2.40;;;;;;;25.35;58.30;99393.25;2057513;28;20520;-44
2021/06/16 02:52:47;;;;;;;3.77;3.07;;;;;;;25.35;58.67;99396.03;2052971;28;20104;-43
2021/06/16 02:53:49;;;;;;;4.05;2.80;;;;;;;25.35;58.51;99390.50;2055197;28;21013;-43
2021/06/16 02:54:59;;;;;;;2.83;2.63;;;;;;;25.34;58.21;99388.81;2059832;28;20057;-42
2021/06/16 02:56:04;;;;;;;3.30;3.00;;;;;;;25.34;58.44;99388.81;2060041;28;20372;-42
2021/06/16 02:57:06;;;;;;;3.50;2.92;;;;;;;25.34;58.45;99394.34;2060404;28;20033;-42
2021/06/16 02:58:06;;;;;;;;;;;;;;;25.31;58.33;99392.00;2068631;28;20037;-43
2021/06/16 02:59:10;;;;;;;2.97;2.50;;;;;;;25.31;58.37;99389.25;2059463;28;19975;-42
2021/06/16 03:00:14;;;;;;;4.07;3.00;;;;;;;25.32;58.72;99393.69;2059393;28;20026;-42
2021/06/16 03:01:17;;;;;;;3.47;2.80;;;;;;;25.32;58.40;99397.28;2060119;28;20120;-44
2021/06/16 03:02:22;;;;;;;3.00;2.70;;;;;;;25.33;58.60;99392.63;2060549;28;20046;-43
2021/06/16 03:03:24;;;;;;;3.40;3.08;;;;;;;25.32;58.70;99390.94;2059741;28;20029;-43
2021/06/16 03:04:25;;;;;;;;;;;;;;;25.29;58.39;99391.34;2060231;28;20117;-43
2021/06/16 03:05:27;;;;;;;3.10;2.70;;;;;;;25.31;58.70;99378.19;2059239;28;19920;-43
2021/06/16 03:06:29;;;;;;;3.17;2.88;;;;;;;25.30;58.38;99385.59;2048883;28;20380;-43
2021/06/16 03:07:33;;;;;;;2.75;2.53;;;;;;;25.30;58.48;99382.84;2050990;28;20754;-43
2021/06/16 03:08:35;;;;;;;3.38;3.08;;;;;;;25.31;58.63;99386.47;2059389;28;20080;-45
2021/06/16 03:09:38;;;;;;;3.20;2.88;;;;;;;25.31;58.68;99387.31;2056670;28;20038;-42
2021/06/16 03:10:39;;;;;;;3.15;2.50;;;;;;;25.31;58.62;99383.72;2058281;28;20084;-43
2021/06/16 03:11:40;;;;;;;3.72;2.80;;;;;;;25.31;58.45;99384.56;2059325;28;20151;-43
2021/06/16 03:12:42;;;;;;;3.85;3.53;;;;;;;25.32;58.63;99385.41;2059932;28;20033;-44
2021/06/16 03:13:46;;;;;;;3.00;2.70;;;;;;;25.32;58.60;99386.25;2059726;28;20125;-43
2021/06/16 03:14:49;;;;;;;3.15;2.72;;;;;;;25.32;58.48;99393.69;2061891;28;20045;-43
2021/06/16 03:15:51;;;;;;;3.47;2.88;;;;;;;25.31;58.57;99389.25;2063091;28;20022;-43
2021/06/16 03:16:52;;;;;;;3.00;2.70;;;;;;;25.32;58.48;99390.94;2063082;28;20032;-42
2021/06/16 03:17:56;;;;;;;3.20;2.83;;;;;;;25.31;58.70;99384.56;2063239;28;20588;-42
2021/06/16 03:18:58;;;;;;;2.97;2.70;;;;;;;25.32;58.68;99389.00;2062233;28;20029;-43
2021/06/16 03:20:00;;;;;;;2.47;2.28;;;;;;;25.32;58.39;99396.44;2061315;28;20022;-43
2021/06/16 03:21:01;;;;;;;3.08;2.72;;;;;;;25.33;58.58;99389.84;2061242;28;20040;-42
2021/06/16 03:22:03;;;;;;;3.57;3.00;;;;;;;25.33;58.39;99387.09;2061142;28;20627;-43
2021/06/16 03:23:04;;;;;;;3.42;3.13;;;;;;;25.33;58.66;99398.13;2061620;28;21049;-43
2021/06/16 03:24:08;;;;;;;2.70;2.50;;;;;;;25.32;58.43;99390.94;2061993;28;20014;-42
2021/06/16 03:25:10;;;;;;;2.97;2.75;;;;;;;25.32;58.70;99394.53;2061517;28;20030;-42
2021/06/16 03:26:11;;;;;;;3.42;3.13;;;;;;;25.32;58.56;99393.69;2060999;28;20652;-43
2021/06/16 03:27:13;;;;;;;3.05;2.75;;;;;;;25.32;58.33;99401.97;2061317;28;20037;-44
2021/06/16 03:28:14;;;;;;;;;;;;;;;25.29;58.72;99399.63;2058444;28;20204;-44
2021/06/16 03:29:17;;;;;;;3.35;3.05;;;;;;;25.29;58.51;99392.19;2062891;28;19979;-43
2021/06/16 03:30:22;;;;;;;2.78;2.40;;;;;;;25.30;58.63;99398.56;2063308;28;20068;-43
2021/06/16 03:31:24;;;;;;;3.50;2.83;;;;;;;25.29;58.67;99388.59;2060618;28;20060;-42
2021/06/16 03:32:26;;;;;;;;;;;;;;;25.27;58.43;99393.47;2061530;28;20030;-43
2021/06/16 03:33:27;;;;;;;3.08;2.85;;;;;;;25.28;58.62;99390.47;2062883;28;20472;-42
2021/06/16 03:34:28;;;;;;;;;;;;;;;25.23;58.61;99388.38;2062450;28;20906;-43
2021/06/16 03:35:29;;;;;;;3.08;2.75;;;;;;;25.26;58.84;99397.25;2062207;28;19932;-44
2021/06/16 03:36:30;;;;;;;2.93;2.70;;;;;;;25.27;58.81;99398.97;2062258;28;20034;-43
2021/06/16 03:37:32;;;;;;;3.20;2.78;;;;;;;25.28;58.70;99395.16;2062286;28;20018;-43
2021/06/16 03:38:37;;;;;;;2.83;2.60;;;;;;;25.28;58.70;99397.91;2062003;28;20524;-43
2021/06/16 03:39:38;;;;;;;2.60;2.40;;;;;;;25.29;58.73;99396.88;2061895;28;20018;-42
2021/06/16 03:40:40;;;;;;;3.80;2.83;;;;;;;25.29;58.43;99396.88;2060932;28;20026;-43
2021/06/16 03:41:42;;;;;;;2.70;2.50;;;;;;;25.28;58.71;99396.00;2060697;28;20746;-43
2021/06/16 03:42:43;;;;;;;;;;;;;;;25.26;58.67;99397.25;2056641;28;20033;-43
2021/06/16 03:43:46;;;;;;;3.33;3.03;;;;;;;25.28;58.49;99403.41;2062580;28;19920;-45
2021/06/16 03:44:49;;;;;;;3.22;2.92;;;;;;;25.27;58.59;99399.81;2062079;28;20415;-43
2021/06/16 03:45:51;;;;;;;3.20;2.90;;;;;;;25.28;58.54;99400.66;2059718;28;20025;-42
2021/06/16 03:46:53;;;;;;;3.30;3.00;;;;;;;25.28;58.75;99408.94;2057857;28;20033;-42
2021/06/16 03:47:57;;;;;;;3.20;2.90;;;;;;;25.29;58.56;99407.91;2062340;28;20033;-43
2021/06/16 03:49:00;;;;;;;3.03;2.67;;;;;;;25.28;58.46;99406.19;2061086;28;20021;-43
2021/06/16 03:50:03;;;;;;;3.08;2.83;;;;;;;25.29;58.64;99413.41;2061408;28;20034;-44
2021/06/16 03:51:05;;;;;;;3.30;3.03;;;;;;;25.28;58.50;99407.03;2062606;28;20026;-43
2021/06/16 03:52:07;;;;;;;3.15;2.85;;;;;;;25.29;58.78;99407.91;2061904;28;20025;-44
2021/06/16 03:53:11;;;;;;;2.83;2.40;;;;;;;25.29;58.42;99407.91;2061787;28;20124;-42
2021/06/16 03:54:12;;;;;;;2.75;2.50;;;;;;;25.30;58.57;99404.06;2061449;28;20037;-43
2021/06/16 03:55:16;;;;;;;3.75;3.05;;;;;;;25.29;58.67;99402.38;2062067;28;20119;-43
2021/06/16 03:56:17;;;;;;;3.58;2.95;;;;;;;25.29;58.59;99403.22;2062582;28;20105;-43
2021/06/16 03:57:20;;;;;;;3.35;3.05;;;;;;;25.30;58.70;99404.06;2059474;28;20030;-43
2021/06/16 03:58:20;;;;;;;3.40;3.10;;;;;;;25.28;58.72;99409.78;2063975;28;20072;-43
2021/06/16 03:59:21;;;;;;;3.10;2.80;;;;;;;25.29;58.70;99408.75;2060861;28;20344;-43
2021/06/16 04:00:23;;;;;;;4.13;2.97;;;;;;;25.30;58.60;99406.81;2053933;28;20052;-43
2021/06/16 04:01:24;;;;;;;2.90;2.70;;;;;;;25.29;58.24;99408.75;2060968;28;20295;-43
2021/06/16 04:02:25;;;;;;;2.80;2.57;;;;;;;25.30;58.53;99409.59;2061636;28;20022;-43
2021/06/16 04:03:26;;;;;;;3.30;2.60;;;;;;;25.30;58.47;99404.06;2055047;28;20309;-46
2021/06/16 04:04:27;;;;;;;3.30;2.92;;;;;;;25.29;58.52;99407.91;2052278;28;20046;-43
2021/06/16 04:05:28;;;;;;;3.27;2.47;;;;;;;25.28;58.36;99407.03;2062855;28;20372;-43
2021/06/16 04:06:28;;;;;;;2.50;2.27;;;;;;;25.29;58.31;99402.38;2063333;28;20869;-43
2021/06/16 04:07:29;;;;;;;3.83;3.00;;;;;;;25.29;58.63;99402.38;2062119;28;20740;-43
2021/06/16 04:08:30;;;;;;;3.10;2.50;;;;;;;25.28;58.63;99400.66;2062420;28;20511;-43
2021/06/16 04:09:31;;;;;;;3.77;3.00;;;;;;;25.29;58.35;99397.72;2062022;28;20018;-43
2021/06/16 04:10:32;;;;;;;3.60;2.80;;;;;;;25.28;58.48;99401.50;2063383;28;20073;-42
2021/06/16 04:11:33;;;;;;;2.95;2.50;;;;;;;25.29;58.33;99402.38;2061399;28;20057;-43
2021/06/16 04:12:34;;;;;;;2.87;2.67;;;;;;;25.28;58.34;99396.00;2058804;28;20029;-46
2021/06/16 04:13:35;;;;;;;3.97;2.60;;;;;;;25.29;58.46;99391.34;2062866;28;20774;-44
2021/06/16 04:14:38;;;;;;;3.15;2.70;;;;;;;25.28;58.57;99390.47;2062286;28;20022;-42
2021/06/16 04:15:39;;;;;;;3.03;2.72;;;;;;;25.28;58.55;99389.63;2061792;28;20057;-42
2021/06/16 04:16:43;;;;;;;2.57;2.37;;;;;;;25.27;58.26;99382.44;2062756;28;20519;-44
2021/06/16 04:17:44;;;;;;;3.75;3.45;;;;;;;25.28;58.33;99384.13;2060539;28;20049;-42
2021/06/16 04:18:44;;;;;;;3.03;2.70;;;;;;;25.27;58.55;99386.03;2061361;28;20026;-43
2021/06/16 04:19:45;;;;;;;2.93;2.73;;;;;;;25.28;58.22;99373.06;2064074;28;20249;-43
2021/06/16 04:20:46;;;;;;;3.33;2.67;;;;;;;25.28;58.44;99384.13;2060451;28;20590;-45
2021/06/16 04:21:46;;;;;;;3.57;3.13;;;;;;;25.28;58.29;99384.13;2062019;28;20040;-44
2021/06/16 04:22:47;;;;;;;3.10;2.80;;;;;;;25.28;58.33;99384.13;2062264;28;20390;-44
2021/06/16 04:23:49;;;;;;;3.53;3.07;;;;;;;25.27;58.45;99386.03;2062625;28;20029;-45
2021/06/16 04:24:49;;;;;;;4.00;2.60;;;;;;;25.27;58.35;99387.94;2056530;28;20499;-42
2021/06/16 04:25:50;;;;;;;3.30;3.00;;;;;;;25.28;58.49;99384.13;2058008;28;20034;-43
2021/06/16 04:26:51;;;;;;;2.73;2.53;;;;;;;25.28;58.28;99384.13;2056976;28;20033;-42
2021/06/16 04:27:53;;;;;;;3.47;2.83;;;;;;;25.28;58.41;99384.13;2051141;28;20616;-42
2021/06/16 04:28:53;;;;;;;;;;;;;;;25.24;58.52;99387.28;2049307;28;20108;-46
2021/06/16 04:29:53;;;;;;;3.00;2.70;;;;;;;25.26;58.50;99377.94;2058192;28;19917;-45
2021/06/16 04:30:54;;;;;;;3.20;2.90;;;;;;;25.25;58.38;99379.88;2059094;28;20079;-44
2021/06/16 04:31:55;;;;;;;3.73;3.43;;;;;;;25.26;58.58;99386.22;2062076;28;20480;-43
2021/06/16 04:32:56;;;;;;;3.67;2.80;;;;;;;25.26;58.29;99384.34;2060711;28;20523;-43
2021/06/16 04:33:58;;;;;;;3.30;3.00;;;;;;;25.26;58.71;99386.22;2062200;28;20321;-44
2021/06/16 04:34:58;;;;;;;2.92;2.60;;;;;;;25.27;58.50;99382.44;2059245;28;20082;-43
2021/06/16 04:36:04;;;;;;;3.03;2.73;;;;;;;25.26;58.26;99380.72;2060662;28;20080;-43
2021/06/16 04:37:06;;;;;;;4.00;2.72;;;;;;;25.25;58.38;99377.09;2060959;28;20091;-43
2021/06/16 04:38:07;;;;;;;3.00;2.80;;;;;;;25.24;58.21;99373.50;2059038;28;20018;-43
2021/06/16 04:39:08;;;;;;;3.90;2.97;;;;;;;25.26;58.56;99377.94;2061088;28;20547;-44
2021/06/16 04:40:09;;;;;;;3.30;3.00;;;;;;;25.26;58.52;99380.72;2060530;28;20389;-44
2021/06/16 04:41:10;;;;;;;3.03;2.75;;;;;;;25.26;58.37;99377.94;2060901;28;20025;-42
2021/06/16 04:42:10;;;;;;;3.17;2.87;;;;;;;25.26;58.41;99372.44;2063122;28;20006;-43
2021/06/16 04:43:11;;;;;;;3.23;2.83;;;;;;;25.26;58.52;99375.19;2060049;28;20081;-43
2021/06/16 04:44:12;;;;;;;3.57;2.87;;;;;;;25.27;58.58;99376.91;2062689;28;20025;-44
2021/06/16 04:45:13;;;;;;;2.78;2.58;;;;;;;25.24;58.51;99368.00;2060750;28;20033;-44
2021/06/16 04:46:13;;;;;;;2.87;2.67;;;;;;;25.26;58.37;99377.94;2060766;28;20134;-43
2021/06/16 04:47:14;;;;;;;3.37;2.60;;;;;;;25.25;58.29;99379.88;2061504;28;20512;-43
2021/06/16 04:48:14;;;;;;;3.53;3.23;;;;;;;25.24;58.39;99373.50;2059519;28;20026;-43
2021/06/16 04:49:15;;;;;;;3.23;2.70;;;;;;;25.24;58.50;99376.25;2060611;28;20034;-42
2021/06/16 04:50:16;;;;;;;3.30;3.00;;;;;;;25.25;58.69;99374.34;2062355;28;20050;-43
2021/06/16 04:51:17;;;;;;;3.92;2.28;;;;;;;25.24;58.65;99379.03;2061324;28;20781;-43
2021/06/16 04:52:17;;;;;;;3.47;3.17;;;;;;;25.25;58.49;99374.34;2059177;28;20085;-42
2021/06/16 04:53:18;;;;;;;3.20;2.90;;;;;;;25.24;58.39;99379.03;2060902;28;20575;-43
2021/06/16 04:54:19;;;;;;;3.27;2.97;;;;;;;25.26;58.53;99380.72;2060274;28;20036;-43
2021/06/16 04:55:19;;;;;;;3.27;2.97;;;;;;;25.26;58.35;99377.94;2060283;28;20033;-43
2021/06/16 04:56:20;;;;;;;3.50;3.20;;;;;;;25.26;58.35;99387.09;2061073;28;20038;-44